Etana — ZJL9105 — position and weather

sailwx.info

Track history (hours):
 
Tides and Currents Weather Stations Pressure Air Temp Water Temp Dewpoint Dewpoint Depression Visibility Wind Speed Wind Dir Waves Ship Positions

Etana

Last reported at 2017-Nov-05 11:10 UTC. Time now 2017-Nov-21 12:16 UTC.
Position N 50°37' W 001°48'.
Warning: this ship's position is 16 days out of date.

Length 18 m.

Type: Sailing vessel. MMSI: 378112132.

Date/timePositionNaut miles runAvg speedWind from/ knotsBaromVisibWave heightAir tempDewpointWater temp
2017-Nov-05 11:10N 50°37' W 001°48'1 4.7
2017-Nov-05 10:58N 50°36' W 001°50'0 1.0
2017-Nov-05 10:29N 50°37' W 001°49'1 2.2
2017-Nov-05 09:59N 50°38' W 001°51'4 8.7
2017-Nov-05 09:29N 50°35' W 001°57'4110.4
2017-Nov-05 05:35N 50°14' W 002°51'2 8.5
2017-Nov-05 05:18N 50°13' W 002°54'3 8.5
2017-Nov-05 05:00N 50°11' W 002°57'4 8.6
2017-Nov-05 04:30N 50°08' W 003°02'4 8.2
2017-Nov-05 04:00N 50°06' W 003°07'10 6.9
2017-Nov-05 02:31N 49°59' W 003°19'97 7.6
2017-Nov-04 13:46N 48°38' W 004°44'310.7
2017-Nov-04 13:30N 48°36' W 004°47'5 9.9
2017-Nov-04 12:59N 48°32' W 004°50'3 7.1
2017-Nov-04 12:30N 48°28' W 004°51'4 7.0
2017-Nov-04 11:59N 48°25' W 004°49'5 9.3
2017-Nov-04 11:24N 48°20' W 004°47'3 7.4
2017-Nov-04 11:00N 48°19' W 004°43'4 8.2
2017-Nov-04 10:30N 48°20' W 004°37'4 8.7
2017-Nov-04 10:00N 48°21' W 004°31'2 2.9
2017-Nov-04 09:28N 48°23' W 004°29'0 0.0
2017-Nov-04 08:58N 48°23' W 004°29'0 0.0
2017-Nov-04 08:13N 48°23' W 004°29'0 0.2
2017-Nov-04 08:00N 48°23' W 004°29'2 4.0
2017-Nov-04 07:30N 48°21' W 004°32'3 6.5
2017-Nov-04 07:00N 48°19' W 004°36'3 5.1
2017-Nov-04 06:30N 48°17' W 004°35'0 0.0
2017-Nov-03 18:03N 48°17' W 004°35'0 0.0
2017-Nov-03 18:00N 48°17' W 004°35'0 0.0
2017-Nov-03 17:30N 48°17' W 004°35'0 0.0
2017-Nov-03 17:00N 48°17' W 004°35'0 0.0
2017-Nov-03 16:30N 48°17' W 004°35'0 0.0
2017-Nov-03 16:00N 48°17' W 004°35'0 0.0
2017-Nov-03 15:30N 48°17' W 004°35'0 0.0
2017-Nov-03 15:00N 48°17' W 004°35'0 0.1
2017-Nov-03 14:30N 48°17' W 004°35'3 5.1
2017-Nov-03 14:00N 48°18' W 004°39'5 9.1
2017-Nov-03 13:30N 48°17' W 004°45'5 8.9
2017-Nov-03 13:00N 48°15' W 004°52'6 8.9
2017-Nov-03 12:22N 48°13' W 004°60'4 9.2
2017-Nov-03 11:59N 48°11' W 005°04'5 9.2
2017-Nov-03 11:29N 48°08' W 005°10'4 8.9
2017-Nov-03 11:00N 48°05' W 005°13'  
2017-Oct-26 18:24N 39°10' W 009°38'4 7.9
2017-Oct-26 17:57N 39°07' W 009°37'4 8.2
2017-Oct-26 17:30N 39°03' W 009°37'4 8.2
2017-Oct-26 17:00N 38°59' W 009°36'4 7.9
2017-Oct-26 16:30N 38°55' W 009°35'4 8.0
2017-Oct-26 16:00N 38°51' W 009°34'4 7.9
2017-Oct-26 15:30N 38°47' W 009°33'4 8.0
2017-Oct-26 15:00N 38°43' W 009°31'4 7.8
2017-Oct-26 14:29N 38°41' W 009°27'2 3.6
2017-Oct-26 13:56N 38°42' W 009°24'0 0.2
2017-Oct-26 12:36N 38°42' W 009°25'0 0.0
2017-Oct-26 12:30N 38°42' W 009°25'0 0.0
2017-Oct-26 11:59N 38°42' W 009°25'0 0.2
2017-Oct-26 11:20N 38°42' W 009°25'  
Track history (hours):
 
Tides and Currents Weather Stations Pressure Air Temp Water Temp Dewpoint Dewpoint Depression Visibility Wind Speed Wind Dir Waves Ship Positions

Etana

Last reported at 2017-Nov-05 11:10 UTC. Time now 2017-Nov-21 12:16 UTC.
Position N 50°37' W 001°48'.
Warning: this ship's position is 16 days out of date.

Length 18 m.

Type: Sailing vessel. MMSI: 378112132.

Date/timePositionNaut miles runAvg speedWind from/ knotsBaromVisibWave heightAir tempDewpointWater temp
2017-Nov-05 11:10N 50°37' W 001°48'1 4.7
2017-Nov-05 10:58N 50°36' W 001°50'0 1.0
2017-Nov-05 10:29N 50°37' W 001°49'1 2.2
2017-Nov-05 09:59N 50°38' W 001°51'4 8.7
2017-Nov-05 09:29N 50°35' W 001°57'4110.4
2017-Nov-05 05:35N 50°14' W 002°51'2 8.5
2017-Nov-05 05:18N 50°13' W 002°54'3 8.5
2017-Nov-05 05:00N 50°11' W 002°57'4 8.6
2017-Nov-05 04:30N 50°08' W 003°02'4 8.2
2017-Nov-05 04:00N 50°06' W 003°07'10 6.9
2017-Nov-05 02:31N 49°59' W 003°19'97 7.6
2017-Nov-04 13:46N 48°38' W 004°44'310.7
2017-Nov-04 13:30N 48°36' W 004°47'5 9.9
2017-Nov-04 12:59N 48°32' W 004°50'3 7.1
2017-Nov-04 12:30N 48°28' W 004°51'4 7.0
2017-Nov-04 11:59N 48°25' W 004°49'5 9.3
2017-Nov-04 11:24N 48°20' W 004°47'3 7.4
2017-Nov-04 11:00N 48°19' W 004°43'4 8.2
2017-Nov-04 10:30N 48°20' W 004°37'4 8.7
2017-Nov-04 10:00N 48°21' W 004°31'2 2.9
2017-Nov-04 09:28N 48°23' W 004°29'0 0.0
2017-Nov-04 08:58N 48°23' W 004°29'0 0.0
2017-Nov-04 08:13N 48°23' W 004°29'0 0.2
2017-Nov-04 08:00N 48°23' W 004°29'2 4.0
2017-Nov-04 07:30N 48°21' W 004°32'3 6.5
2017-Nov-04 07:00N 48°19' W 004°36'3 5.1
2017-Nov-04 06:30N 48°17' W 004°35'0 0.0
2017-Nov-03 18:03N 48°17' W 004°35'0 0.0
2017-Nov-03 18:00N 48°17' W 004°35'0 0.0
2017-Nov-03 17:30N 48°17' W 004°35'0 0.0
2017-Nov-03 17:00N 48°17' W 004°35'0 0.0
2017-Nov-03 16:30N 48°17' W 004°35'0 0.0
2017-Nov-03 16:00N 48°17' W 004°35'0 0.0
2017-Nov-03 15:30N 48°17' W 004°35'0 0.0
2017-Nov-03 15:00N 48°17' W 004°35'0 0.1
2017-Nov-03 14:30N 48°17' W 004°35'3 5.1
2017-Nov-03 14:00N 48°18' W 004°39'5 9.1
2017-Nov-03 13:30N 48°17' W 004°45'5 8.9
2017-Nov-03 13:00N 48°15' W 004°52'6 8.9
2017-Nov-03 12:22N 48°13' W 004°60'4 9.2
2017-Nov-03 11:59N 48°11' W 005°04'5 9.2
2017-Nov-03 11:29N 48°08' W 005°10'4 8.9
2017-Nov-03 11:00N 48°05' W 005°13'  
2017-Oct-26 18:24N 39°10' W 009°38'4 7.9
2017-Oct-26 17:57N 39°07' W 009°37'4 8.2
2017-Oct-26 17:30N 39°03' W 009°37'4 8.2
2017-Oct-26 17:00N 38°59' W 009°36'4 7.9
2017-Oct-26 16:30N 38°55' W 009°35'4 8.0
2017-Oct-26 16:00N 38°51' W 009°34'4 7.9
2017-Oct-26 15:30N 38°47' W 009°33'4 8.0
2017-Oct-26 15:00N 38°43' W 009°31'4 7.8
2017-Oct-26 14:29N 38°41' W 009°27'2 3.6
2017-Oct-26 13:56N 38°42' W 009°24'0 0.2
2017-Oct-26 12:36N 38°42' W 009°25'0 0.0
2017-Oct-26 12:30N 38°42' W 009°25'0 0.0
2017-Oct-26 11:59N 38°42' W 009°25'0 0.2
2017-Oct-26 11:20N 38°42' W 009°25'  

Dump ship's entire track history